PWSweather.com
Personal Weather Stations
Station Observations
NYERIN
South Erin, Erin, NY 14838-9545

South ErinErin, NY 14838-9545

Lat: 42.150605, Lon: -76.654038

Elevation: 1663

Station Type: Davis VP Pro II

http://southerin-ny.org/wx.php

Latest ConditionsUpdated 12:52:01 PM EDT Thursday, Jul 24, 2014
Currently Today's Max Today's Min Today's Average
Temperature 63.2°F17.3°C 64.5°F18.1°C 56.9°F13.8°C 60.2°F15.7°C
Dew Point 55.1°F12.8°C 60.4°F15.8°C 53.4°F11.9°C 57.7°F14.3°C
Winds 4.5 mph N7.2 kmh N 8.6 mph NW13.8 kmh NW - 2.6 mph 4.2 kmh
Wind Gusts 16.0 mph25.7 kmh 16.0 mph25.7 kmh - -
Humidity 75% 100% 70% 92%
Pressure 29.96 in1014.6 mb 29.96 in1014.6 mb 29.87 in1011.5 mb -
Hour Temp Dew Point Humidity Winds Wind Gusts Pressure Precip Precip Rate Daily Precip Total
12:52 PM 63.2°F17.3°C 55.1°F12.8°C 75% 4.5 mph N7.2 kmh N 16.0 mph25.7 kmh 29.96 in1014.6 mb 0.00 in0.0 mm 0.00 in/hr0.0 mm/hr 0.00 in0.0 mm
12:42 PM 63.0°F17.2°C 54.9°F12.7°C 75% 6.9 mph WNW11.1 kmh WNW 13.0 mph20.9 kmh 29.96 in1014.6 mb 0.00 in0.0 mm 0.00 in/hr0.0 mm/hr 0.00 in0.0 mm
12:32 PM 63.1°F17.3°C 55.8°F13.2°C 77% 4.2 mph N6.8 kmh N 11.0 mph17.7 kmh 29.96 in1014.6 mb 0.00 in0.0 mm 0.00 in/hr0.0 mm/hr 0.00 in0.0 mm
12:22 PM 62.5°F16.9°C 54.8°F12.7°C 76% 4.7 mph N7.6 kmh N 9.0 mph14.5 kmh 29.96 in1014.6 mb 0.00 in0.0 mm 0.00 in/hr0.0 mm/hr 0.00 in0.0 mm
12:12 PM 64.2°F17.9°C 55.8°F13.2°C 74% 4.0 mph NNW6.4 kmh NNW 10.0 mph16.1 kmh 29.96 in1014.6 mb 0.00 in0.0 mm 0.00 in/hr0.0 mm/hr 0.00 in0.0 mm
12:02 PM 63.4°F17.4°C 55.7°F13.2°C 76% 5.5 mph NNW8.9 kmh NNW 8.0 mph12.9 kmh 29.96 in1014.6 mb 0.00 in0.0 mm 0.00 in/hr0.0 mm/hr 0.00 in0.0 mm
11:52 AM 63.3°F17.4°C 53.4°F11.9°C 70% 5.6 mph NW9.0 kmh NW 13.0 mph20.9 kmh 29.96 in1014.6 mb 0.00 in0.0 mm 0.00 in/hr0.0 mm/hr 0.00 in0.0 mm
11:42 AM 63.1°F17.3°C 54.3°F12.4°C 73% 4.4 mph NNW7.1 kmh NNW 9.0 mph14.5 kmh 29.96 in1014.6 mb 0.00 in0.0 mm 0.00 in/hr0.0 mm/hr 0.00 in0.0 mm
11:32 AM 63.2°F17.3°C 56.2°F13.4°C 78% 7.0 mph N11.3 kmh N 7.0 mph11.3 kmh 29.96 in1014.6 mb 0.00 in0.0 mm 0.00 in/hr0.0 mm/hr 0.00 in0.0 mm
11:22 AM 62.8°F17.1°C 57.2°F14.0°C 82% 2.7 mph NNW4.3 kmh NNW 8.0 mph12.9 kmh 29.95 in1014.2 mb 0.00 in0.0 mm 0.00 in/hr0.0 mm/hr 0.00 in0.0 mm
11:12 AM 62.4°F16.9°C 55.4°F13.0°C 78% 4.9 mph NNW7.9 kmh NNW 9.0 mph14.5 kmh 29.95 in1014.2 mb 0.00 in0.0 mm 0.00 in/hr0.0 mm/hr 0.00 in0.0 mm
11:02 AM 64.5°F18.1°C 55.3°F12.9°C 72% 3.1 mph N5.0 kmh N 9.0 mph14.5 kmh 29.94 in1013.9 mb 0.00 in0.0 mm 0.00 in/hr0.0 mm/hr 0.00 in0.0 mm
10:52 AM 63.7°F17.6°C 54.5°F12.5°C 72% 4.3 mph N6.9 kmh N 6.0 mph9.7 kmh 29.94 in1013.9 mb 0.00 in0.0 mm 0.00 in/hr0.0 mm/hr 0.00 in0.0 mm
10:42 AM 63.7°F17.6°C 55.3°F12.9°C 74% 5.4 mph N8.7 kmh N 11.0 mph17.7 kmh 29.95 in1014.2 mb 0.00 in0.0 mm 0.00 in/hr0.0 mm/hr 0.00 in0.0 mm
10:32 AM 63.5°F17.5°C 55.4°F13.0°C 75% 2.4 mph NNE3.9 kmh NNE 6.0 mph9.7 kmh 29.94 in1013.9 mb 0.00 in0.0 mm 0.00 in/hr0.0 mm/hr 0.00 in0.0 mm
10:22 AM 62.9°F17.2°C 54.9°F12.7°C 75% 4.3 mph N6.9 kmh N 10.0 mph16.1 kmh 29.94 in1013.9 mb 0.00 in0.0 mm 0.00 in/hr0.0 mm/hr 0.00 in0.0 mm
10:12 AM 63.4°F17.4°C 54.6°F12.6°C 73% 8.6 mph NW13.8 kmh NW 12.0 mph19.3 kmh 29.94 in1013.9 mb 0.00 in0.0 mm 0.00 in/hr0.0 mm/hr 0.00 in0.0 mm
10:02 AM 63.7°F17.6°C 56.7°F13.7°C 78% 1.2 mph NW1.9 kmh NW 3.0 mph4.8 kmh 29.93 in1013.5 mb 0.00 in0.0 mm 0.00 in/hr0.0 mm/hr 0.00 in0.0 mm
09:52 AM 62.9°F17.2°C 56.3°F13.5°C 79% 4.7 mph NW7.6 kmh NW 8.0 mph12.9 kmh 29.93 in1013.5 mb 0.00 in0.0 mm 0.00 in/hr0.0 mm/hr 0.00 in0.0 mm
09:42 AM 62.1°F16.7°C 55.9°F13.3°C 80% 3.8 mph N6.1 kmh N 6.0 mph9.7 kmh 29.93 in1013.5 mb 0.00 in0.0 mm 0.00 in/hr0.0 mm/hr 0.00 in0.0 mm
09:32 AM 61.3°F16.3°C 56.4°F13.6°C 84% 1.3 mph NNE2.1 kmh NNE 2.0 mph3.2 kmh 29.93 in1013.5 mb 0.00 in0.0 mm 0.00 in/hr0.0 mm/hr 0.00 in0.0 mm
09:22 AM 61.2°F16.2°C 56.0°F13.3°C 83% 1.0 mph NNW1.6 kmh NNW 4.0 mph6.4 kmh 29.93 in1013.5 mb 0.00 in0.0 mm 0.00 in/hr0.0 mm/hr 0.00 in0.0 mm
09:12 AM 61.0°F16.1°C 56.5°F13.6°C 85% 2.4 mph NE3.9 kmh NE 5.0 mph8.0 kmh 29.93 in1013.5 mb 0.00 in0.0 mm 0.00 in/hr0.0 mm/hr 0.00 in0.0 mm
09:02 AM 60.5°F15.8°C 56.3°F13.5°C 86% 3.5 mph NW5.6 kmh NW 5.0 mph8.0 kmh 29.93 in1013.5 mb 0.00 in0.0 mm 0.00 in/hr0.0 mm/hr 0.00 in0.0 mm
08:52 AM 60.3°F15.7°C 56.0°F13.3°C 86% 3.7 mph NW6.0 kmh NW 7.0 mph11.3 kmh 29.93 in1013.5 mb 0.00 in0.0 mm 0.00 in/hr0.0 mm/hr 0.00 in0.0 mm
08:42 AM 60.2°F15.7°C 57.2°F14.0°C 90% 2.0 mph N3.2 kmh N 7.0 mph11.3 kmh 29.93 in1013.5 mb 0.00 in0.0 mm 0.00 in/hr0.0 mm/hr 0.00 in0.0 mm
08:32 AM 59.5°F15.3°C 56.9°F13.8°C 91% 1.7 mph NNE2.7 kmh NNE 7.0 mph11.3 kmh 29.93 in1013.5 mb 0.00 in0.0 mm 0.00 in/hr0.0 mm/hr 0.00 in0.0 mm
08:22 AM 58.9°F14.9°C 56.9°F13.8°C 93% 3.2 mph N5.1 kmh N 5.0 mph8.0 kmh 29.93 in1013.5 mb 0.00 in0.0 mm 0.00 in/hr0.0 mm/hr 0.00 in0.0 mm
08:12 AM 58.3°F14.6°C 56.3°F13.5°C 93% 2.5 mph NNE4.0 kmh NNE 3.0 mph4.8 kmh 29.92 in1013.2 mb 0.00 in0.0 mm 0.00 in/hr0.0 mm/hr 0.00 in0.0 mm
08:02 AM 58.4°F14.7°C 57.3°F14.1°C 96% 5.0 mph N8.0 kmh N 8.0 mph12.9 kmh 29.92 in1013.2 mb 0.00 in0.0 mm 0.00 in/hr0.0 mm/hr 0.00 in0.0 mm
07:52 AM 58.3°F14.6°C 57.7°F14.3°C 98% 1.5 mph NW2.4 kmh NW 4.0 mph6.4 kmh 29.92 in1013.2 mb 0.00 in0.0 mm 0.00 in/hr0.0 mm/hr 0.00 in0.0 mm
07:42 AM 57.7°F14.3°C 57.7°F14.3°C 100% 3.9 mph W6.3 kmh W 7.0 mph11.3 kmh 29.92 in1013.2 mb 0.00 in0.0 mm 0.00 in/hr0.0 mm/hr 0.00 in0.0 mm
07:32 AM 57.6°F14.2°C 57.6°F14.2°C 100% 3.7 mph NNW6.0 kmh NNW 5.0 mph8.0 kmh 29.92 in1013.2 mb 0.00 in0.0 mm 0.00 in/hr0.0 mm/hr 0.00 in0.0 mm
07:22 AM 57.3°F14.1°C 57.3°F14.1°C 100% 1.2 mph NW1.9 kmh NW 6.0 mph9.7 kmh 29.92 in1013.2 mb 0.00 in0.0 mm 0.00 in/hr0.0 mm/hr 0.00 in0.0 mm
07:12 AM 57.2°F14.0°C 57.2°F14.0°C 100% 1.8 mph NNW2.9 kmh NNW 3.0 mph4.8 kmh 29.92 in1013.2 mb 0.00 in0.0 mm 0.00 in/hr0.0 mm/hr 0.00 in0.0 mm
07:02 AM 56.9°F13.8°C 56.9°F13.8°C 100% 0.7 mph N1.1 kmh N 3.0 mph4.8 kmh 29.91 in1012.9 mb 0.00 in0.0 mm 0.00 in/hr0.0 mm/hr 0.00 in0.0 mm
06:52 AM 56.9°F13.8°C 56.9°F13.8°C 100% 0.3 mph NNW0.5 kmh NNW 3.0 mph4.8 kmh 29.92 in1013.2 mb 0.00 in0.0 mm 0.00 in/hr0.0 mm/hr 0.00 in0.0 mm
06:42 AM 57.0°F13.9°C 57.0°F13.9°C 100% 0.6 mph NW1.0 kmh NW 1.0 mph1.6 kmh 29.92 in1013.2 mb 0.00 in0.0 mm 0.00 in/hr0.0 mm/hr 0.00 in0.0 mm
06:32 AM 57.3°F14.1°C 57.3°F14.1°C 100% 1.4 mph WNW2.3 kmh WNW 3.0 mph4.8 kmh 29.92 in1013.2 mb 0.00 in0.0 mm 0.00 in/hr0.0 mm/hr 0.00 in0.0 mm
06:22 AM 57.5°F14.2°C 57.5°F14.2°C 100% 1.6 mph NW2.6 kmh NW 5.0 mph8.0 kmh 29.92 in1013.2 mb 0.00 in0.0 mm 0.00 in/hr0.0 mm/hr 0.00 in0.0 mm
06:12 AM 57.6°F14.2°C 57.6°F14.2°C 100% 0.8 mph NNW1.3 kmh NNW 1.0 mph1.6 kmh 29.91 in1012.9 mb 0.00 in0.0 mm 0.00 in/hr0.0 mm/hr 0.00 in0.0 mm
06:02 AM 57.8°F14.3°C 57.8°F14.3°C 100% 2.8 mph N4.5 kmh N 7.0 mph11.3 kmh 29.91 in1012.9 mb 0.00 in0.0 mm 0.00 in/hr0.0 mm/hr 0.00 in0.0 mm
05:52 AM 58.0°F14.4°C 58.0°F14.4°C 100% 0.9 mph NW1.4 kmh NW 3.0 mph4.8 kmh 29.91 in1012.9 mb 0.00 in0.0 mm 0.00 in/hr0.0 mm/hr 0.00 in0.0 mm
05:42 AM 58.1°F14.5°C 58.1°F14.5°C 100% 3.2 mph NW5.1 kmh NW 7.0 mph11.3 kmh 29.90 in1012.5 mb 0.00 in0.0 mm 0.00 in/hr0.0 mm/hr 0.00 in0.0 mm
05:32 AM 58.3°F14.6°C 58.3°F14.6°C 100% 2.5 mph NNW4.0 kmh NNW 7.0 mph11.3 kmh 29.90 in1012.5 mb 0.00 in0.0 mm 0.00 in/hr0.0 mm/hr 0.00 in0.0 mm
05:22 AM 58.3°F14.6°C 58.3°F14.6°C 100% 2.4 mph NNW3.9 kmh NNW 4.0 mph6.4 kmh 29.90 in1012.5 mb 0.00 in0.0 mm 0.00 in/hr0.0 mm/hr 0.00 in0.0 mm
05:12 AM 58.4°F14.7°C 58.4°F14.7°C 100% 2.0 mph NW3.2 kmh NW 4.0 mph6.4 kmh 29.89 in1012.2 mb 0.00 in0.0 mm 0.00 in/hr0.0 mm/hr 0.00 in0.0 mm
05:02 AM 58.6°F14.8°C 58.6°F14.8°C 100% 1.0 mph NNW1.6 kmh NNW 5.0 mph8.0 kmh 29.89 in1012.2 mb 0.00 in0.0 mm 0.00 in/hr0.0 mm/hr 0.00 in0.0 mm
04:52 AM 58.7°F14.8°C 58.7°F14.8°C 100% 2.5 mph NW4.0 kmh NW 6.0 mph9.7 kmh 29.88 in1011.9 mb 0.00 in0.0 mm 0.00 in/hr0.0 mm/hr 0.00 in0.0 mm
04:42 AM 58.9°F14.9°C 58.9°F14.9°C 100% 0.4 mph NW0.6 kmh NW 3.0 mph4.8 kmh 29.88 in1011.9 mb 0.00 in0.0 mm 0.00 in/hr0.0 mm/hr 0.00 in0.0 mm
04:32 AM 58.9°F14.9°C 58.9°F14.9°C 100% 1.3 mph NW2.1 kmh NW 4.0 mph6.4 kmh 29.87 in1011.5 mb 0.00 in0.0 mm 0.00 in/hr0.0 mm/hr 0.00 in0.0 mm
04:22 AM 59.0°F15.0°C 59.0°F15.0°C 100% 1.8 mph NW2.9 kmh NW 3.0 mph4.8 kmh 29.87 in1011.5 mb 0.00 in0.0 mm 0.00 in/hr0.0 mm/hr 0.00 in0.0 mm
04:12 AM 59.0°F15.0°C 59.0°F15.0°C 100% 0.8 mph NW1.3 kmh NW 3.0 mph4.8 kmh 29.87 in1011.5 mb 0.00 in0.0 mm 0.00 in/hr0.0 mm/hr 0.00 in0.0 mm
04:02 AM 59.0°F15.0°C 59.0°F15.0°C 100% 1.3 mph NW2.1 kmh NW 2.0 mph3.2 kmh 29.87 in1011.5 mb 0.00 in0.0 mm 0.00 in/hr0.0 mm/hr 0.00 in0.0 mm
03:52 AM 59.0°F15.0°C 59.0°F15.0°C 100% 1.7 mph NNW2.7 kmh NNW 4.0 mph6.4 kmh 29.87 in1011.5 mb 0.00 in0.0 mm 0.00 in/hr0.0 mm/hr 0.00 in0.0 mm
03:42 AM 59.0°F15.0°C 59.0°F15.0°C 100% 1.9 mph NW3.1 kmh NW 7.0 mph11.3 kmh 29.87 in1011.5 mb 0.00 in0.0 mm 0.00 in/hr0.0 mm/hr 0.00 in0.0 mm
03:32 AM 59.2°F15.1°C 59.2°F15.1°C 100% 2.5 mph N4.0 kmh N 5.0 mph8.0 kmh 29.87 in1011.5 mb 0.00 in0.0 mm 0.00 in/hr0.0 mm/hr 0.00 in0.0 mm
03:22 AM 59.3°F15.2°C 59.3°F15.2°C 100% 1.0 mph NW1.6 kmh NW 3.0 mph4.8 kmh 29.87 in1011.5 mb 0.00 in0.0 mm 0.00 in/hr0.0 mm/hr 0.00 in0.0 mm
03:12 AM 59.5°F15.3°C 59.5°F15.3°C 100% 0.6 mph N1.0 kmh N 3.0 mph4.8 kmh 29.87 in1011.5 mb 0.00 in0.0 mm 0.00 in/hr0.0 mm/hr 0.00 in0.0 mm
03:02 AM 59.6°F15.3°C 59.6°F15.3°C 100% 3.7 mph NNW6.0 kmh NNW 6.0 mph9.7 kmh 29.87 in1011.5 mb 0.00 in0.0 mm 0.00 in/hr0.0 mm/hr 0.00 in0.0 mm
02:52 AM 59.8°F15.4°C 59.8°F15.4°C 100% 1.6 mph NW2.6 kmh NW 8.0 mph12.9 kmh 29.88 in1011.9 mb 0.00 in0.0 mm 0.00 in/hr0.0 mm/hr 0.00 in0.0 mm
02:42 AM 59.8°F15.4°C 59.8°F15.4°C 100% 1.6 mph NNW2.6 kmh NNW 4.0 mph6.4 kmh 29.88 in1011.9 mb 0.00 in0.0 mm 0.00 in/hr0.0 mm/hr 0.00 in0.0 mm
02:32 AM 59.9°F15.5°C 59.9°F15.5°C 100% 0.9 mph N1.4 kmh N 4.0 mph6.4 kmh 29.87 in1011.5 mb 0.00 in0.0 mm 0.00 in/hr0.0 mm/hr 0.00 in0.0 mm
02:22 AM 59.9°F15.5°C 59.9°F15.5°C 100% 2.8 mph NW4.5 kmh NW 5.0 mph8.0 kmh 29.88 in1011.9 mb 0.00 in0.0 mm 0.00 in/hr0.0 mm/hr 0.00 in0.0 mm
02:12 AM 60.1°F15.6°C 60.1°F15.6°C 100% 0.9 mph NNW1.4 kmh NNW 5.0 mph8.0 kmh 29.88 in1011.9 mb 0.00 in0.0 mm 0.00 in/hr0.0 mm/hr 0.00 in0.0 mm
02:02 AM 60.1°F15.6°C 60.1°F15.6°C 100% 1.0 mph NNW1.6 kmh NNW 1.0 mph1.6 kmh 29.88 in1011.9 mb 0.00 in0.0 mm 0.00 in/hr0.0 mm/hr 0.00 in0.0 mm
01:52 AM 60.1°F15.6°C 60.1°F15.6°C 100% 1.2 mph NW1.9 kmh NW 5.0 mph8.0 kmh 29.89 in1012.2 mb 0.00 in0.0 mm 0.00 in/hr0.0 mm/hr 0.00 in0.0 mm
01:42 AM 60.1°F15.6°C 60.1°F15.6°C 100% 1.7 mph WNW2.7 kmh WNW 5.0 mph8.0 kmh 29.89 in1012.2 mb 0.00 in0.0 mm 0.00 in/hr0.0 mm/hr 0.00 in0.0 mm
01:32 AM 60.1°F15.6°C 60.1°F15.6°C 100% 0.2 mph NW0.3 kmh NW -- 29.89 in1012.2 mb 0.00 in0.0 mm 0.00 in/hr0.0 mm/hr 0.00 in0.0 mm
01:22 AM 60.1°F15.6°C 60.1°F15.6°C 100% 3.6 mph NW5.8 kmh NW 7.0 mph11.3 kmh 29.88 in1011.9 mb 0.00 in0.0 mm 0.00 in/hr0.0 mm/hr 0.00 in0.0 mm
01:12 AM 60.1°F15.6°C 60.1°F15.6°C 100% 0.5 mph NW0.8 kmh NW 3.0 mph4.8 kmh 29.88 in1011.9 mb 0.00 in0.0 mm 0.00 in/hr0.0 mm/hr 0.00 in0.0 mm
01:02 AM 60.1°F15.6°C 60.1°F15.6°C 100% 3.5 mph NW5.6 kmh NW 6.0 mph9.7 kmh 29.88 in1011.9 mb 0.00 in0.0 mm 0.00 in/hr0.0 mm/hr 0.00 in0.0 mm
12:52 AM 60.1°F15.6°C 60.1°F15.6°C 100% 0.6 mph NNW1.0 kmh NNW 1.0 mph1.6 kmh 29.88 in1011.9 mb 0.00 in0.0 mm 0.00 in/hr0.0 mm/hr 0.00 in0.0 mm
12:42 AM 60.1°F15.6°C 60.1°F15.6°C 100% 4.7 mph NW7.6 kmh NW 7.0 mph11.3 kmh 29.88 in1011.9 mb 0.00 in0.0 mm 0.00 in/hr0.0 mm/hr 0.00 in0.0 mm
12:32 AM 60.2°F15.7°C 60.2°F15.7°C 100% 2.3 mph NW3.7 kmh NW 3.0 mph4.8 kmh 29.88 in1011.9 mb 0.00 in0.0 mm 0.00 in/hr0.0 mm/hr 0.00 in0.0 mm
12:22 AM 60.2°F15.7°C 60.2°F15.7°C 100% 1.7 mph NW2.7 kmh NW 4.0 mph6.4 kmh 29.88 in1011.9 mb 0.00 in0.0 mm 0.00 in/hr0.0 mm/hr 0.00 in0.0 mm
12:12 AM 60.4°F15.8°C 60.4°F15.8°C 100% 1.8 mph WNW2.9 kmh WNW 4.0 mph6.4 kmh 29.88 in1011.9 mb 0.00 in0.0 mm 0.00 in/hr0.0 mm/hr 0.00 in0.0 mm
12:02 AM 60.4°F15.8°C 60.4°F15.8°C 100% 2.1 mph NW3.4 kmh NW 6.0 mph9.7 kmh 29.88 in1011.9 mb 0.00 in0.0 mm 0.00 in/hr0.0 mm/hr 0.00 in0.0 mm